sensor_id;sensor_type;location;lat;lon;timestamp;pressure;altitude;pressure_sealevel;temperature;humidity
82621;BME280;72291;55.002;-1.592;2024-02-23T00:00:06;96991.71;;;2.60;55.89
82621;BME280;72291;55.002;-1.592;2024-02-23T00:02:27;96984.78;;;3.22;54.10
82621;BME280;72291;55.002;-1.592;2024-02-23T00:04:52;96974.78;;;5.08;51.52
82621;BME280;72291;55.002;-1.592;2024-02-23T00:07:19;96990.16;;;2.63;56.44
82621;BME280;72291;55.002;-1.592;2024-02-23T00:09:43;96987.82;;;3.20;55.01
82621;BME280;72291;55.002;-1.592;2024-02-23T00:12:08;96985.78;;;2.94;56.75
82621;BME280;72291;55.002;-1.592;2024-02-23T00:14:33;96984.80;;;2.94;56.07
82621;BME280;72291;55.002;-1.592;2024-02-23T00:16:59;96978.24;;;3.62;53.99
82621;BME280;72291;55.002;-1.592;2024-02-23T00:19:25;96978.10;;;3.76;54.14
82621;BME280;72291;55.002;-1.592;2024-02-23T00:21:49;96982.81;;;3.38;55.71
82621;BME280;72291;55.002;-1.592;2024-02-23T00:24:16;96975.87;;;3.91;54.35
82621;BME280;72291;55.002;-1.592;2024-02-23T00:26:39;96964.83;;;4.32;52.84
82621;BME280;72291;55.002;-1.592;2024-02-23T00:29:05;96966.40;;;4.69;52.44
82621;BME280;72291;55.002;-1.592;2024-02-23T00:31:31;96974.97;;;3.33;54.59
82621;BME280;72291;55.002;-1.592;2024-02-23T00:33:55;96970.17;;;3.58;55.38
82621;BME280;72291;55.002;-1.592;2024-02-23T00:36:20;96979.37;;;3.10;57.88
82621;BME280;72291;55.002;-1.592;2024-02-23T00:38:45;96970.16;;;3.06;58.96
82621;BME280;72291;55.002;-1.592;2024-02-23T00:41:12;96971.16;;;2.36;59.65
82621;BME280;72291;55.002;-1.592;2024-02-23T00:43:38;96966.28;;;3.57;58.79
82621;BME280;72291;55.002;-1.592;2024-02-23T00:46:01;96957.91;;;3.25;58.22
82621;BME280;72291;55.002;-1.592;2024-02-23T00:48:32;96957.59;;;3.42;58.29
82621;BME280;72291;55.002;-1.592;2024-02-23T00:50:52;96958.27;;;3.93;57.67
82621;BME280;72291;55.002;-1.592;2024-02-23T00:53:17;96962.38;;;2.27;60.37
82621;BME280;72291;55.002;-1.592;2024-02-23T00:55:42;96962.82;;;2.62;59.34
82621;BME280;72291;55.002;-1.592;2024-02-23T00:58:07;96966.13;;;2.81;58.51
82621;BME280;72291;55.002;-1.592;2024-02-23T01:00:32;96954.51;;;3.74;55.74
82621;BME280;72291;55.002;-1.592;2024-02-23T01:02:58;96966.05;;;2.89;57.87
82621;BME280;72291;55.002;-1.592;2024-02-23T01:05:23;96959.62;;;3.14;56.51
82621;BME280;72291;55.002;-1.592;2024-02-23T01:07:48;96961.27;;;3.67;55.65
82621;BME280;72291;55.002;-1.592;2024-02-23T01:10:13;96966.27;;;3.00;55.62
82621;BME280;72291;55.002;-1.592;2024-02-23T01:12:39;96961.83;;;2.97;56.90
82621;BME280;72291;55.002;-1.592;2024-02-23T01:15:05;96966.65;;;1.42;59.86
82621;BME280;72291;55.002;-1.592;2024-02-23T01:17:36;96958.62;;;3.17;56.89
82621;BME280;72291;55.002;-1.592;2024-02-23T01:19:54;96953.91;;;3.39;55.41
82621;BME280;72291;55.002;-1.592;2024-02-23T01:22:20;96962.39;;;2.63;56.78
82621;BME280;72291;55.002;-1.592;2024-02-23T01:24:45;96966.91;;;2.30;57.21
82621;BME280;72291;55.002;-1.592;2024-02-23T01:27:10;96972.58;;;2.68;56.84
82621;BME280;72291;55.002;-1.592;2024-02-23T01:29:35;96956.53;;;3.52;55.20
82621;BME280;72291;55.002;-1.592;2024-02-23T01:32:00;96962.40;;;2.65;55.18
82621;BME280;72291;55.002;-1.592;2024-02-23T01:34:25;96970.88;;;2.57;55.22
82621;BME280;72291;55.002;-1.592;2024-02-23T01:36:51;96975.02;;;1.64;57.03
82621;BME280;72291;55.002;-1.592;2024-02-23T01:39:16;96973.49;;;2.03;56.42
82621;BME280;72291;55.002;-1.592;2024-02-23T01:41:42;96968.28;;;2.72;56.46
82621;BME280;72291;55.002;-1.592;2024-02-23T01:44:08;96957.57;;;4.63;51.04
82621;BME280;72291;55.002;-1.592;2024-02-23T01:46:32;96954.74;;;3.67;52.09
82621;BME280;72291;55.002;-1.592;2024-02-23T01:48:58;96946.49;;;4.82;49.86
82621;BME280;72291;55.002;-1.592;2024-02-23T01:51:24;96948.42;;;3.94;50.57
82621;BME280;72291;55.002;-1.592;2024-02-23T01:53:48;96951.73;;;3.09;52.48
82621;BME280;72291;55.002;-1.592;2024-02-23T01:56:15;96958.55;;;2.15;54.88
82621;BME280;72291;55.002;-1.592;2024-02-23T01:58:39;96958.94;;;2.90;53.48
82621;BME280;72291;55.002;-1.592;2024-02-23T02:01:04;96957.51;;;2.80;52.90
82621;BME280;72291;55.002;-1.592;2024-02-23T02:03:29;96964.79;;;1.47;54.93
82621;BME280;72291;55.002;-1.592;2024-02-23T02:05:55;96954.49;;;2.06;54.32
82621;BME280;72291;55.002;-1.592;2024-02-23T02:08:21;96961.25;;;1.17;57.41
82621;BME280;72291;55.002;-1.592;2024-02-23T02:10:57;96955.88;;;2.07;55.36
82621;BME280;72291;55.002;-1.592;2024-02-23T02:13:11;96958.79;;;1.58;56.35
82621;BME280;72291;55.002;-1.592;2024-02-23T02:15:36;96955.99;;;1.64;56.45
82621;BME280;72291;55.002;-1.592;2024-02-23T02:18:01;96952.67;;;2.51;53.88
82621;BME280;72291;55.002;-1.592;2024-02-23T02:20:28;96959.23;;;1.73;54.98
82621;BME280;72291;55.002;-1.592;2024-02-23T02:22:52;96960.44;;;2.82;53.50
82621;BME280;72291;55.002;-1.592;2024-02-23T02:25:17;96961.36;;;2.50;54.55
82621;BME280;72291;55.002;-1.592;2024-02-23T02:27:42;96962.70;;;2.78;53.88
82621;BME280;72291;55.002;-1.592;2024-02-23T02:30:08;96966.83;;;2.20;55.32
82621;BME280;72291;55.002;-1.592;2024-02-23T02:32:35;96967.50;;;2.23;54.72
82621;BME280;72291;55.002;-1.592;2024-02-23T02:34:58;96960.46;;;3.16;53.78
82621;BME280;72291;55.002;-1.592;2024-02-23T02:37:24;96961.39;;;2.11;53.85
82621;BME280;72291;55.002;-1.592;2024-02-23T02:39:49;96961.55;;;3.00;52.98
82621;BME280;72291;55.002;-1.592;2024-02-23T02:42:16;96968.01;;;2.96;53.44
82621;BME280;72291;55.002;-1.592;2024-02-23T02:44:39;96968.35;;;3.13;52.82
82621;BME280;72291;55.002;-1.592;2024-02-23T02:47:05;96970.46;;;4.80;50.30
82621;BME280;72291;55.002;-1.592;2024-02-23T02:49:30;96966.25;;;4.23;50.27
82621;BME280;72291;55.002;-1.592;2024-02-23T02:51:55;96964.31;;;3.99;49.96
82621;BME280;72291;55.002;-1.592;2024-02-23T02:54:21;96970.81;;;3.90;50.50
82621;BME280;72291;55.002;-1.592;2024-02-23T02:56:48;96968.27;;;4.41;49.46
82621;BME280;72291;55.002;-1.592;2024-02-23T02:59:11;96962.83;;;3.20;51.46
82621;BME280;72291;55.002;-1.592;2024-02-23T03:01:36;96958.63;;;5.66;48.38
82621;BME280;72291;55.002;-1.592;2024-02-23T03:04:02;96958.34;;;4.90;48.61
82621;BME280;72291;55.002;-1.592;2024-02-23T03:06:27;96960.26;;;4.23;51.10
82621;BME280;72291;55.002;-1.592;2024-02-23T03:08:53;96956.22;;;6.97;45.82
82621;BME280;72291;55.002;-1.592;2024-02-23T03:11:17;96955.10;;;7.11;44.39
82621;BME280;72291;55.002;-1.592;2024-02-23T03:13:43;96958.54;;;6.22;46.39
82621;BME280;72291;55.002;-1.592;2024-02-23T03:16:16;96954.20;;;4.90;48.56
82621;BME280;72291;55.002;-1.592;2024-02-23T03:18:33;96954.55;;;2.55;52.39
82621;BME280;72291;55.002;-1.592;2024-02-23T03:20:58;96941.67;;;4.78;50.10
82621;BME280;72291;55.002;-1.592;2024-02-23T03:23:23;96944.97;;;3.17;51.03
82621;BME280;72291;55.002;-1.592;2024-02-23T03:25:48;96940.08;;;3.63;51.08
82621;BME280;72291;55.002;-1.592;2024-02-23T03:28:14;96943.82;;;2.53;53.89
82621;BME280;72291;55.002;-1.592;2024-02-23T03:30:39;96937.93;;;3.10;53.13
82621;BME280;72291;55.002;-1.592;2024-02-23T03:33:04;96932.40;;;2.80;54.14
82621;BME280;72291;55.002;-1.592;2024-02-23T03:35:29;96934.05;;;3.03;53.71
82621;BME280;72291;55.002;-1.592;2024-02-23T03:37:54;96934.02;;;3.09;53.06
82621;BME280;72291;55.002;-1.592;2024-02-23T03:40:20;96942.99;;;2.61;55.52
82621;BME280;72291;55.002;-1.592;2024-02-23T03:42:45;96939.19;;;4.05;52.50
82621;BME280;72291;55.002;-1.592;2024-02-23T03:45:10;96937.23;;;4.88;50.40
82621;BME280;72291;55.002;-1.592;2024-02-23T03:47:35;96935.30;;;4.05;51.85
82621;BME280;72291;55.002;-1.592;2024-02-23T03:50:01;96934.90;;;4.29;50.88
82621;BME280;72291;55.002;-1.592;2024-02-23T03:52:26;96938.38;;;4.67;50.72
82621;BME280;72291;55.002;-1.592;2024-02-23T03:54:51;96936.49;;;5.11;50.88
82621;BME280;72291;55.002;-1.592;2024-02-23T03:57:17;96940.92;;;3.88;52.45
82621;BME280;72291;55.002;-1.592;2024-02-23T04:02:06;96942.60;;;3.78;53.20
82621;BME280;72291;55.002;-1.592;2024-02-23T04:04:32;96954.89;;;4.00;53.39
82621;BME280;72291;55.002;-1.592;2024-02-23T04:06:57;96957.69;;;5.41;50.58
82621;BME280;72291;55.002;-1.592;2024-02-23T04:09:23;96956.89;;;3.79;53.32
82621;BME280;72291;55.002;-1.592;2024-02-23T04:11:47;96963.73;;;5.20;51.12
82621;BME280;72291;55.002;-1.592;2024-02-23T04:14:13;96964.18;;;6.36;49.80
82621;BME280;72291;55.002;-1.592;2024-02-23T04:16:38;96966.28;;;5.32;51.89
82621;BME280;72291;55.002;-1.592;2024-02-23T04:19:03;96965.62;;;4.67;53.47
82621;BME280;72291;55.002;-1.592;2024-02-23T04:21:28;96956.25;;;4.70;52.74
82621;BME280;72291;55.002;-1.592;2024-02-23T04:23:58;96966.45;;;4.44;53.77
82621;BME280;72291;55.002;-1.592;2024-02-23T04:26:19;96967.05;;;4.71;52.96
82621;BME280;72291;55.002;-1.592;2024-02-23T04:28:44;96973.22;;;3.36;54.85
82621;BME280;72291;55.002;-1.592;2024-02-23T04:31:09;96978.94;;;3.73;54.71
82621;BME280;72291;55.002;-1.592;2024-02-23T04:33:34;96973.97;;;3.88;54.38
82621;BME280;72291;55.002;-1.592;2024-02-23T04:35:59;96973.75;;;3.29;56.17
82621;BME280;72291;55.002;-1.592;2024-02-23T04:38:25;96970.43;;;3.64;56.16
82621;BME280;72291;55.002;-1.592;2024-02-23T04:40:50;96972.67;;;2.76;57.79
82621;BME280;72291;55.002;-1.592;2024-02-23T04:43:16;96971.77;;;2.35;58.58
82621;BME280;72291;55.002;-1.592;2024-02-23T04:45:40;96971.13;;;2.51;58.97
82621;BME280;72291;55.002;-1.592;2024-02-23T04:48:06;96969.90;;;3.02;57.53
82621;BME280;72291;55.002;-1.592;2024-02-23T04:50:36;96964.89;;;2.36;58.89
82621;BME280;72291;55.002;-1.592;2024-02-23T04:52:56;96964.74;;;3.15;57.29
82621;BME280;72291;55.002;-1.592;2024-02-23T04:55:21;96960.27;;;3.06;57.13
82621;BME280;72291;55.002;-1.592;2024-02-23T04:57:46;96950.30;;;3.46;57.05
82621;BME280;72291;55.002;-1.592;2024-02-23T05:00:12;96958.05;;;3.64;56.85
82621;BME280;72291;55.002;-1.592;2024-02-23T05:02:37;96964.34;;;2.88;57.97
82621;BME280;72291;55.002;-1.592;2024-02-23T05:05:04;96966.02;;;2.78;58.95
82621;BME280;72291;55.002;-1.592;2024-02-23T05:07:27;96961.66;;;2.58;58.13
82621;BME280;72291;55.002;-1.592;2024-02-23T05:09:53;96965.76;;;2.73;57.45
82621;BME280;72291;55.002;-1.592;2024-02-23T05:12:18;96964.84;;;3.10;56.44
82621;BME280;72291;55.002;-1.592;2024-02-23T05:14:43;96967.77;;;2.90;56.68
82621;BME280;72291;55.002;-1.592;2024-02-23T05:17:08;96962.94;;;3.34;55.65
82621;BME280;72291;55.002;-1.592;2024-02-23T05:19:33;96964.98;;;3.87;53.99
82621;BME280;72291;55.002;-1.592;2024-02-23T05:22:09;96967.47;;;4.18;53.46
82621;BME280;72291;55.002;-1.592;2024-02-23T05:24:24;96974.11;;;4.33;52.83
82621;BME280;72291;55.002;-1.592;2024-02-23T05:26:53;96975.60;;;4.36;52.63
82621;BME280;72291;55.002;-1.592;2024-02-23T05:29:16;96977.45;;;3.81;53.55
82621;BME280;72291;55.002;-1.592;2024-02-23T05:31:52;96977.86;;;3.49;55.26
82621;BME280;72291;55.002;-1.592;2024-02-23T05:34:07;96979.76;;;3.84;54.03
82621;BME280;72291;55.002;-1.592;2024-02-23T05:36:30;96972.28;;;4.47;52.63
82621;BME280;72291;55.002;-1.592;2024-02-23T05:38:56;96975.94;;;4.07;52.52
82621;BME280;72291;55.002;-1.592;2024-02-23T05:41:21;96977.13;;;4.60;52.70
82621;BME280;72291;55.002;-1.592;2024-02-23T05:43:46;96977.03;;;4.03;52.83
82621;BME280;72291;55.002;-1.592;2024-02-23T05:46:11;96978.30;;;5.42;50.79
82621;BME280;72291;55.002;-1.592;2024-02-23T05:48:41;96976.04;;;4.63;52.37
82621;BME280;72291;55.002;-1.592;2024-02-23T05:51:01;96971.10;;;4.85;51.49
82621;BME280;72291;55.002;-1.592;2024-02-23T05:53:27;96975.59;;;4.48;52.81
82621;BME280;72291;55.002;-1.592;2024-02-23T05:55:52;96980.82;;;5.32;51.75
82621;BME280;72291;55.002;-1.592;2024-02-23T05:58:18;96986.87;;;4.20;52.86
82621;BME280;72291;55.002;-1.592;2024-02-23T06:00:43;96986.41;;;3.89;53.50
82621;BME280;72291;55.002;-1.592;2024-02-23T06:05:37;96989.64;;;4.75;51.71
82621;BME280;72291;55.002;-1.592;2024-02-23T06:08:02;96991.14;;;3.55;54.67
82621;BME280;72291;55.002;-1.592;2024-02-23T06:10:24;96999.44;;;3.78;55.45
82621;BME280;72291;55.002;-1.592;2024-02-23T06:12:49;97000.75;;;3.01;56.56
82621;BME280;72291;55.002;-1.592;2024-02-23T06:15:16;96993.76;;;3.55;56.18
82621;BME280;72291;55.002;-1.592;2024-02-23T06:17:39;96992.83;;;3.39;56.80
82621;BME280;72291;55.002;-1.592;2024-02-23T06:20:12;96996.48;;;2.42;57.75
82621;BME280;72291;55.002;-1.592;2024-02-23T06:22:30;96998.96;;;2.69;58.63
82621;BME280;72291;55.002;-1.592;2024-02-23T06:24:55;97005.27;;;2.92;57.92
82621;BME280;72291;55.002;-1.592;2024-02-23T06:27:20;97006.87;;;3.31;56.87
82621;BME280;72291;55.002;-1.592;2024-02-23T06:29:45;97004.69;;;3.78;55.38
82621;BME280;72291;55.002;-1.592;2024-02-23T06:32:10;97016.16;;;2.88;57.40
82621;BME280;72291;55.002;-1.592;2024-02-23T06:34:39;97017.89;;;4.31;54.99
82621;BME280;72291;55.002;-1.592;2024-02-23T06:37:01;97032.54;;;3.61;54.64
82621;BME280;72291;55.002;-1.592;2024-02-23T06:39:26;97031.49;;;4.63;53.31
82621;BME280;72291;55.002;-1.592;2024-02-23T06:41:51;97033.46;;;3.93;54.89
82621;BME280;72291;55.002;-1.592;2024-02-23T06:44:16;97042.64;;;3.62;57.37
82621;BME280;72291;55.002;-1.592;2024-02-23T06:46:42;97041.06;;;4.36;54.94
82621;BME280;72291;55.002;-1.592;2024-02-23T06:49:07;97044.44;;;3.32;56.77
82621;BME280;72291;55.002;-1.592;2024-02-23T06:51:32;97034.31;;;4.00;55.94
82621;BME280;72291;55.002;-1.592;2024-02-23T06:54:01;97027.85;;;3.96;55.80
82621;BME280;72291;55.002;-1.592;2024-02-23T06:56:22;97026.87;;;3.74;55.91
82621;BME280;72291;55.002;-1.592;2024-02-23T06:58:53;97033.22;;;3.01;57.37
82621;BME280;72291;55.002;-1.592;2024-02-23T07:01:14;97027.83;;;4.29;54.62
82621;BME280;72291;55.002;-1.592;2024-02-23T07:03:38;97033.69;;;3.61;56.59
82621;BME280;72291;55.002;-1.592;2024-02-23T07:06:03;97029.69;;;3.39;57.04
82621;BME280;72291;55.002;-1.592;2024-02-23T07:08:28;97031.47;;;3.75;56.48
82621;BME280;72291;55.002;-1.592;2024-02-23T07:10:55;97031.21;;;3.94;56.14
82621;BME280;72291;55.002;-1.592;2024-02-23T07:13:19;97043.37;;;2.15;59.52
82621;BME280;72291;55.002;-1.592;2024-02-23T07:15:49;97040.22;;;2.50;59.17
82621;BME280;72291;55.002;-1.592;2024-02-23T07:18:11;97040.12;;;3.62;57.01
82621;BME280;72291;55.002;-1.592;2024-02-23T07:20:36;97042.55;;;4.19;56.11
82621;BME280;72291;55.002;-1.592;2024-02-23T07:23:01;97041.68;;;4.45;55.12
82621;BME280;72291;55.002;-1.592;2024-02-23T07:25:25;97052.60;;;3.32;57.96
82621;BME280;72291;55.002;-1.592;2024-02-23T07:27:50;97048.25;;;4.58;54.79
82621;BME280;72291;55.002;-1.592;2024-02-23T07:30:16;97048.20;;;4.84;53.42
82621;BME280;72291;55.002;-1.592;2024-02-23T07:32:40;97044.89;;;5.52;52.18
82621;BME280;72291;55.002;-1.592;2024-02-23T07:35:06;97045.06;;;5.03;53.33
82621;BME280;72291;55.002;-1.592;2024-02-23T07:37:31;97047.90;;;3.76;55.18
82621;BME280;72291;55.002;-1.592;2024-02-23T07:39:56;97048.35;;;2.73;57.93
82621;BME280;72291;55.002;-1.592;2024-02-23T07:42:22;97039.34;;;3.42;57.98
82621;BME280;72291;55.002;-1.592;2024-02-23T07:44:46;97044.42;;;3.16;57.66
82621;BME280;72291;55.002;-1.592;2024-02-23T07:47:13;97043.01;;;2.69;59.31
82621;BME280;72291;55.002;-1.592;2024-02-23T07:49:37;97042.63;;;3.11;57.71
82621;BME280;72291;55.002;-1.592;2024-02-23T07:52:03;97041.65;;;3.43;58.45
82621;BME280;72291;55.002;-1.592;2024-02-23T07:54:32;97050.89;;;3.19;58.22
82621;BME280;72291;55.002;-1.592;2024-02-23T07:56:53;97043.69;;;4.42;56.04
82621;BME280;72291;55.002;-1.592;2024-02-23T07:59:18;97052.87;;;2.86;59.72
82621;BME280;72291;55.002;-1.592;2024-02-23T08:01:49;97050.96;;;3.19;59.23
82621;BME280;72291;55.002;-1.592;2024-02-23T08:04:08;97047.66;;;3.23;58.29
82621;BME280;72291;55.002;-1.592;2024-02-23T08:06:36;97043.52;;;3.40;58.06
82621;BME280;72291;55.002;-1.592;2024-02-23T08:09:05;97050.48;;;3.47;58.82
82621;BME280;72291;55.002;-1.592;2024-02-23T08:11:25;97045.03;;;2.99;59.86
82621;BME280;72291;55.002;-1.592;2024-02-23T08:13:51;97050.51;;;4.31;56.50
82621;BME280;72291;55.002;-1.592;2024-02-23T08:16:16;97054.69;;;3.19;58.46
82621;BME280;72291;55.002;-1.592;2024-02-23T08:18:39;97058.62;;;4.24;56.54
82621;BME280;72291;55.002;-1.592;2024-02-23T08:21:05;97059.81;;;4.52;56.51
82621;BME280;72291;55.002;-1.592;2024-02-23T08:23:31;97058.96;;;4.47;55.27
82621;BME280;72291;55.002;-1.592;2024-02-23T08:25:55;97068.67;;;3.88;56.51
82621;BME280;72291;55.002;-1.592;2024-02-23T08:28:20;97071.50;;;4.55;55.85
82621;BME280;72291;55.002;-1.592;2024-02-23T08:30:47;97073.11;;;4.13;56.19
82621;BME280;72291;55.002;-1.592;2024-02-23T08:33:11;97078.75;;;3.50;57.88
82621;BME280;72291;55.002;-1.592;2024-02-23T08:35:51;97080.74;;;2.85;59.52
82621;BME280;72291;55.002;-1.592;2024-02-23T08:38:01;97082.15;;;3.29;59.04
82621;BME280;72291;55.002;-1.592;2024-02-23T08:40:26;97086.91;;;4.51;56.09
82621;BME280;72291;55.002;-1.592;2024-02-23T08:42:51;97091.20;;;4.02;57.03
82621;BME280;72291;55.002;-1.592;2024-02-23T08:45:17;97092.95;;;4.62;55.85
82621;BME280;72291;55.002;-1.592;2024-02-23T08:47:43;97101.52;;;4.50;56.07
82621;BME280;72291;55.002;-1.592;2024-02-23T08:50:08;97101.17;;;4.75;55.70
82621;BME280;72291;55.002;-1.592;2024-02-23T08:52:32;97096.00;;;4.30;56.30
82621;BME280;72291;55.002;-1.592;2024-02-23T08:54:58;97098.51;;;4.15;56.58
82621;BME280;72291;55.002;-1.592;2024-02-23T08:57:23;97098.03;;;4.00;57.05
82621;BME280;72291;55.002;-1.592;2024-02-23T08:59:48;97100.21;;;3.53;58.90
82621;BME280;72291;55.002;-1.592;2024-02-23T09:02:13;97096.48;;;4.09;57.66
82621;BME280;72291;55.002;-1.592;2024-02-23T09:04:38;97098.08;;;4.49;55.83
82621;BME280;72291;55.002;-1.592;2024-02-23T09:07:05;97094.84;;;4.01;55.79
82621;BME280;72291;55.002;-1.592;2024-02-23T09:09:29;97090.25;;;4.67;54.80
82621;BME280;72291;55.002;-1.592;2024-02-23T09:11:55;97098.48;;;3.39;58.18
82621;BME280;72291;55.002;-1.592;2024-02-23T09:14:19;97099.12;;;5.14;55.89
82621;BME280;72291;55.002;-1.592;2024-02-23T09:16:44;97105.73;;;4.12;57.32
82621;BME280;72291;55.002;-1.592;2024-02-23T09:19:09;97102.52;;;4.99;56.00
82621;BME280;72291;55.002;-1.592;2024-02-23T09:21:34;97108.68;;;5.20;56.26
82621;BME280;72291;55.002;-1.592;2024-02-23T09:24:01;97116.95;;;4.71;57.80
82621;BME280;72291;55.002;-1.592;2024-02-23T09:26:25;97111.21;;;5.72;55.44
82621;BME280;72291;55.002;-1.592;2024-02-23T09:28:52;97124.89;;;5.08;57.10
82621;BME280;72291;55.002;-1.592;2024-02-23T09:31:16;97120.34;;;5.99;54.59
82621;BME280;72291;55.002;-1.592;2024-02-23T09:33:41;97130.48;;;5.60;55.20
82621;BME280;72291;55.002;-1.592;2024-02-23T09:36:07;97138.12;;;4.33;58.23
82621;BME280;72291;55.002;-1.592;2024-02-23T09:38:31;97135.01;;;4.85;56.60
82621;BME280;72291;55.002;-1.592;2024-02-23T09:40:58;97135.13;;;5.28;56.14
82621;BME280;72291;55.002;-1.592;2024-02-23T09:43:22;97138.78;;;5.60;55.33
82621;BME280;72291;55.002;-1.592;2024-02-23T09:45:47;97144.33;;;5.57;56.16
82621;BME280;72291;55.002;-1.592;2024-02-23T09:48:13;97142.40;;;5.65;54.51
82621;BME280;72291;55.002;-1.592;2024-02-23T09:50:40;97149.52;;;5.68;54.56
82621;BME280;72291;55.002;-1.592;2024-02-23T09:53:04;97156.34;;;4.42;57.88
82621;BME280;72291;55.002;-1.592;2024-02-23T10:00:19;97162.92;;;5.17;55.77
82621;BME280;72291;55.002;-1.592;2024-02-23T10:02:50;97174.00;;;5.84;54.93
82621;BME280;72291;55.002;-1.592;2024-02-23T10:05:08;97183.73;;;5.12;56.12
82621;BME280;72291;55.002;-1.592;2024-02-23T10:07:33;97182.66;;;4.96;56.61
82621;BME280;72291;55.002;-1.592;2024-02-23T10:09:58;97184.46;;;5.12;57.28
82621;BME280;72291;55.002;-1.592;2024-02-23T10:12:24;97178.22;;;6.05;54.35
82621;BME280;72291;55.002;-1.592;2024-02-23T10:17:13;97202.93;;;5.29;55.64
82621;BME280;72291;55.002;-1.592;2024-02-23T10:19:39;97202.08;;;4.66;57.38
82621;BME280;72291;55.002;-1.592;2024-02-23T10:22:05;97211.02;;;4.10;57.10
82621;BME280;72291;55.002;-1.592;2024-02-23T10:24:30;97218.39;;;4.16;57.43
82621;BME280;72291;55.002;-1.592;2024-02-23T10:26:54;97214.56;;;4.48;56.52
82621;BME280;72291;55.002;-1.592;2024-02-23T10:29:19;97217.48;;;4.85;54.74
82621;BME280;72291;55.002;-1.592;2024-02-23T10:31:46;97219.36;;;4.91;54.77
82621;BME280;72291;55.002;-1.592;2024-02-23T10:34:10;97221.62;;;4.19;57.24
82621;BME280;72291;55.002;-1.592;2024-02-23T10:36:36;97216.87;;;5.52;54.42
82621;BME280;72291;55.002;-1.592;2024-02-23T10:39:03;97209.61;;;5.33;53.83
82621;BME280;72291;55.002;-1.592;2024-02-23T10:41:26;97211.91;;;5.38;52.48
82621;BME280;72291;55.002;-1.592;2024-02-23T10:43:53;97209.12;;;6.04;52.20
82621;BME280;72291;55.002;-1.592;2024-02-23T10:46:22;97215.43;;;5.97;51.81
82621;BME280;72291;55.002;-1.592;2024-02-23T10:48:43;97224.44;;;5.45;53.21
82621;BME280;72291;55.002;-1.592;2024-02-23T10:51:07;97219.11;;;6.06;52.87
82621;BME280;72291;55.002;-1.592;2024-02-23T10:53:32;97224.59;;;5.41;53.87
82621;BME280;72291;55.002;-1.592;2024-02-23T10:55:57;97234.15;;;4.20;56.27
82621;BME280;72291;55.002;-1.592;2024-02-23T10:58:21;97232.71;;;4.59;54.89
82621;BME280;72291;55.002;-1.592;2024-02-23T11:00:47;97230.72;;;5.21;53.53
82621;BME280;72291;55.002;-1.592;2024-02-23T11:03:12;97231.90;;;5.22;53.33
82621;BME280;72291;55.002;-1.592;2024-02-23T11:05:37;97240.12;;;4.06;55.24
82621;BME280;72291;55.002;-1.592;2024-02-23T11:08:03;97236.10;;;4.47;54.76
82621;BME280;72291;55.002;-1.592;2024-02-23T11:10:27;97236.78;;;4.70;54.01
82621;BME280;72291;55.002;-1.592;2024-02-23T11:12:59;97234.80;;;4.65;54.51
82621;BME280;72291;55.002;-1.592;2024-02-23T11:15:26;97230.91;;;5.62;51.63
82621;BME280;72291;55.002;-1.592;2024-02-23T11:17:50;97231.64;;;5.81;51.52
82621;BME280;72291;55.002;-1.592;2024-02-23T11:20:08;97234.64;;;6.12;50.72
82621;BME280;72291;55.002;-1.592;2024-02-23T11:22:35;97239.95;;;5.32;52.10
82621;BME280;72291;55.002;-1.592;2024-02-23T11:25:01;97241.77;;;5.95;50.32
82621;BME280;72291;55.002;-1.592;2024-02-23T11:27:38;97249.80;;;5.72;51.23
82621;BME280;72291;55.002;-1.592;2024-02-23T11:32:14;97256.56;;;5.79;49.58
82621;BME280;72291;55.002;-1.592;2024-02-23T11:34:39;97260.19;;;4.98;51.69
82621;BME280;72291;55.002;-1.592;2024-02-23T11:37:09;97270.96;;;4.72;53.66
82621;BME280;72291;55.002;-1.592;2024-02-23T11:39:29;97267.94;;;6.25;51.45
82621;BME280;72291;55.002;-1.592;2024-02-23T11:41:54;97270.66;;;5.39;52.26
82621;BME280;72291;55.002;-1.592;2024-02-23T11:44:19;97267.33;;;6.54;49.05
82621;BME280;72291;55.002;-1.592;2024-02-23T11:46:52;97271.81;;;7.56;48.61
82621;BME280;72291;55.002;-1.592;2024-02-23T11:49:19;97268.34;;;9.17;44.66
82621;BME280;72291;55.002;-1.592;2024-02-23T11:51:35;97262.20;;;9.69;43.35
82621;BME280;72291;55.002;-1.592;2024-02-23T11:54:00;97266.99;;;8.37;44.46
82621;BME280;72291;55.002;-1.592;2024-02-23T11:56:26;97271.49;;;8.42;45.31
82621;BME280;72291;55.002;-1.592;2024-02-23T11:58:51;97265.40;;;9.87;42.55
82621;BME280;72291;55.002;-1.592;2024-02-23T12:01:17;97272.76;;;8.10;45.55
82621;BME280;72291;55.002;-1.592;2024-02-23T12:03:42;97273.89;;;9.12;43.80
82621;BME280;72291;55.002;-1.592;2024-02-23T12:06:07;97282.38;;;8.04;46.52
82621;BME280;72291;55.002;-1.592;2024-02-23T12:08:33;97280.00;;;7.71;46.77
82621;BME280;72291;55.002;-1.592;2024-02-23T12:10:57;97277.21;;;8.27;45.44
82621;BME280;72291;55.002;-1.592;2024-02-23T12:13:32;97279.65;;;8.87;44.48
82621;BME280;72291;55.002;-1.592;2024-02-23T12:15:51;97280.41;;;7.98;46.04
82621;BME280;72291;55.002;-1.592;2024-02-23T12:18:13;97278.41;;;9.00;44.05
82621;BME280;72291;55.002;-1.592;2024-02-23T12:20:38;97280.06;;;8.13;45.93
82621;BME280;72291;55.002;-1.592;2024-02-23T12:23:12;97280.16;;;6.92;48.74
82621;BME280;72291;55.002;-1.592;2024-02-23T12:25:29;97285.22;;;6.59;48.62
82621;BME280;72291;55.002;-1.592;2024-02-23T12:27:55;97291.42;;;7.14;47.93
82621;BME280;72291;55.002;-1.592;2024-02-23T12:30:18;97286.83;;;6.45;49.70
82621;BME280;72291;55.002;-1.592;2024-02-23T12:32:44;97294.25;;;6.25;49.22
82621;BME280;72291;55.002;-1.592;2024-02-23T12:35:10;97298.79;;;6.14;49.03
82621;BME280;72291;55.002;-1.592;2024-02-23T12:37:36;97294.56;;;6.24;49.22
82621;BME280;72291;55.002;-1.592;2024-02-23T12:39:59;97295.97;;;6.92;47.41
82621;BME280;72291;55.002;-1.592;2024-02-23T12:42:25;97302.16;;;6.26;47.64
82621;BME280;72291;55.002;-1.592;2024-02-23T12:44:50;97298.69;;;6.53;47.84
82621;BME280;72291;55.002;-1.592;2024-02-23T12:49:40;97304.70;;;6.50;47.97
82621;BME280;72291;55.002;-1.592;2024-02-23T12:52:06;97307.29;;;6.49;48.13
82621;BME280;72291;55.002;-1.592;2024-02-23T12:54:30;97310.67;;;7.46;46.34
82621;BME280;72291;55.002;-1.592;2024-02-23T12:56:56;97310.70;;;7.59;46.82
82621;BME280;72291;55.002;-1.592;2024-02-23T12:59:21;97316.05;;;8.27;45.19
82621;BME280;72291;55.002;-1.592;2024-02-23T13:01:47;97318.57;;;7.23;46.27
82621;BME280;72291;55.002;-1.592;2024-02-23T13:04:11;97322.72;;;7.00;46.38